createdAt,value
2023-09-09T00:01:57.321Z,14.91
2023-09-09T00:06:13.000Z,14.74
2023-09-09T00:10:15.115Z,14.60
2023-09-09T00:14:17.080Z,14.55
2023-09-09T00:18:19.460Z,14.56
2023-09-09T00:22:21.636Z,14.55
2023-09-09T00:26:23.604Z,14.57
2023-09-09T00:30:26.192Z,14.60
2023-09-09T00:34:28.222Z,14.63
2023-09-09T00:38:30.361Z,14.61
2023-09-09T00:42:32.485Z,14.60
2023-09-09T00:46:34.524Z,14.62
2023-09-09T00:50:36.998Z,14.64
2023-09-09T00:54:39.529Z,14.63
2023-09-09T00:58:41.715Z,14.54
2023-09-09T01:02:44.012Z,14.42
2023-09-09T01:06:46.657Z,14.31
2023-09-09T01:10:48.756Z,14.22
2023-09-09T01:14:50.783Z,14.13
2023-09-09T01:18:54.451Z,14.07
2023-09-09T01:22:56.651Z,14.09
2023-09-09T01:26:59.092Z,14.06
2023-09-09T01:31:01.337Z,13.99
2023-09-09T01:35:05.402Z,13.90
2023-09-09T01:39:08.482Z,13.91
2023-09-09T01:43:10.973Z,13.93
2023-09-09T01:47:14.518Z,13.85
2023-09-09T01:51:17.720Z,13.75
2023-09-09T01:55:19.798Z,13.66
2023-09-09T01:59:21.897Z,13.61
2023-09-09T02:03:26.133Z,13.57
2023-09-09T02:07:28.324Z,13.53
2023-09-09T02:11:30.290Z,13.49
2023-09-09T02:15:32.317Z,13.46
2023-09-09T02:19:34.410Z,13.41
2023-09-09T02:23:41.085Z,13.38
2023-09-09T02:27:43.271Z,13.42
2023-09-09T02:31:45.271Z,13.40
2023-09-09T02:35:48.643Z,13.41
2023-09-09T02:39:52.618Z,13.41
2023-09-09T02:43:54.886Z,13.37
2023-09-09T02:47:57.334Z,13.31
2023-09-09T02:52:00.081Z,13.27
2023-09-09T02:56:02.147Z,13.31
2023-09-09T03:00:06.715Z,13.26
2023-09-09T03:04:08.751Z,13.18
2023-09-09T03:08:11.273Z,13.15
2023-09-09T03:12:13.734Z,13.08
2023-09-09T03:16:17.241Z,13.04
2023-09-09T03:20:19.977Z,12.98
2023-09-09T03:24:22.132Z,12.94
2023-09-09T03:28:24.460Z,12.84
2023-09-09T03:32:26.896Z,12.79
2023-09-09T03:36:28.970Z,12.78
2023-09-09T03:40:31.047Z,12.77
2023-09-09T03:44:33.362Z,12.77
2023-09-09T03:48:35.791Z,12.72
2023-09-09T03:52:37.941Z,12.62
2023-09-09T03:56:40.160Z,12.54
2023-09-09T04:00:42.650Z,12.52
2023-09-09T04:04:45.825Z,12.56
2023-09-09T04:08:48.119Z,12.61
2023-09-09T04:12:50.664Z,12.60
2023-09-09T04:16:53.768Z,12.56
2023-09-09T04:20:56.217Z,12.54
2023-09-09T04:24:58.592Z,12.55
2023-09-09T04:29:00.867Z,12.57
2023-09-09T04:33:03.303Z,12.58
2023-09-09T04:37:06.170Z,12.59
2023-09-09T04:41:09.315Z,12.60
2023-09-09T04:45:11.315Z,12.64
2023-09-09T04:49:16.447Z,12.76
2023-09-09T04:53:23.952Z,12.90
2023-09-09T04:57:42.704Z,13.09
2023-09-09T05:01:45.443Z,13.35
2023-09-09T05:05:47.684Z,13.59
2023-09-09T05:09:49.962Z,13.79
2023-09-09T05:13:53.257Z,13.98
2023-09-09T05:17:55.402Z,14.11
2023-09-09T05:21:58.209Z,14.20
2023-09-09T05:26:00.374Z,14.26
2023-09-09T05:30:03.304Z,14.35
2023-09-09T05:34:05.629Z,14.48
2023-09-09T05:38:07.983Z,14.61
2023-09-09T05:42:11.077Z,14.71
2023-09-09T05:46:14.763Z,14.79
2023-09-09T05:50:17.169Z,14.92
2023-09-09T05:54:19.276Z,15.03
2023-09-09T05:58:21.442Z,15.20
2023-09-09T06:02:23.602Z,15.40
2023-09-09T06:06:30.059Z,15.63
2023-09-09T06:10:32.518Z,15.87
2023-09-09T06:14:34.601Z,16.08
2023-09-09T06:18:36.758Z,16.28
2023-09-09T06:22:39.356Z,16.49
2023-09-09T06:26:41.624Z,16.72
2023-09-09T06:30:44.403Z,16.91
2023-09-09T06:34:46.515Z,17.12
2023-09-09T06:38:49.256Z,17.35
2023-09-09T06:42:51.650Z,17.55
2023-09-09T06:46:53.664Z,17.70
2023-09-09T06:50:56.044Z,17.87
2023-09-09T06:54:58.119Z,18.06
2023-09-09T06:59:00.128Z,18.29
2023-09-09T07:03:02.316Z,18.54
2023-09-09T07:07:12.124Z,18.77
2023-09-09T07:11:15.089Z,19.03
2023-09-09T07:15:17.300Z,19.29
2023-09-09T07:19:19.269Z,19.53
2023-09-09T07:23:21.214Z,19.77
2023-09-09T07:27:23.178Z,20.00
2023-09-09T07:31:26.274Z,20.29
2023-09-09T07:35:28.241Z,20.60
2023-09-09T07:39:30.938Z,20.93
2023-09-09T07:43:33.017Z,21.25
2023-09-09T07:47:35.119Z,21.55
2023-09-09T07:51:37.196Z,21.86
2023-09-09T07:55:39.229Z,22.16
2023-09-09T07:59:41.345Z,22.42
2023-09-09T08:03:43.561Z,22.55
2023-09-09T08:07:45.862Z,22.80
2023-09-09T08:11:49.009Z,23.10
2023-09-09T08:15:52.116Z,23.36
2023-09-09T08:19:55.214Z,23.54
2023-09-09T08:24:01.311Z,23.65
2023-09-09T08:28:04.505Z,23.88
2023-09-09T08:32:07.260Z,24.13
2023-09-09T08:36:09.648Z,24.34
2023-09-09T08:40:12.523Z,24.51
2023-09-09T08:45:00.731Z,24.63
2023-09-09T08:49:06.107Z,24.79
2023-09-09T08:53:13.563Z,24.97
2023-09-09T08:57:17.113Z,25.14
2023-09-09T09:01:23.167Z,25.29
2023-09-09T09:05:25.850Z,25.48
2023-09-09T09:09:30.501Z,25.64
2023-09-09T09:13:33.997Z,25.63
2023-09-09T09:17:40.224Z,25.45
2023-09-09T09:21:44.090Z,25.49
2023-09-09T09:25:52.193Z,25.63
2023-09-09T09:29:54.243Z,25.66
2023-09-09T09:34:00.397Z,25.71
2023-09-09T09:38:08.768Z,25.78
2023-09-09T09:42:17.538Z,25.81
2023-09-09T09:46:22.297Z,25.91
2023-09-09T09:50:29.510Z,25.97
2023-09-09T09:54:34.267Z,26.15
2023-09-09T09:58:37.799Z,26.26
2023-09-09T10:02:44.356Z,26.26
2023-09-09T10:06:51.943Z,26.35
2023-09-09T10:11:06.776Z,26.48
2023-09-09T10:15:12.987Z,26.46
2023-09-09T10:19:18.867Z,26.57
2023-09-09T10:23:23.212Z,26.67
2023-09-09T10:27:28.282Z,26.73
2023-09-09T10:31:35.540Z,26.83
2023-09-09T10:35:45.597Z,27.07
2023-09-09T10:39:51.514Z,27.22
2023-09-09T10:43:54.671Z,27.35
2023-09-09T10:48:13.241Z,27.51
2023-09-09T10:52:33.230Z,27.50
2023-09-09T10:56:45.884Z,27.50
2023-09-09T11:00:50.122Z,27.58
2023-09-09T11:05:19.273Z,27.66
2023-09-09T11:09:28.938Z,27.63
2023-09-09T11:13:55.394Z,27.79
2023-09-09T11:17:59.843Z,28.00
2023-09-09T11:22:05.423Z,28.19
2023-09-09T11:26:13.940Z,28.22
2023-09-09T11:30:16.596Z,28.28
2023-09-09T11:34:35.918Z,28.30
2023-09-09T11:38:41.141Z,28.29
2023-09-09T11:42:52.811Z,27.98
2023-09-09T11:46:54.876Z,27.97
2023-09-09T11:51:15.439Z,28.12
2023-09-09T11:55:18.432Z,28.32
2023-09-09T11:59:22.200Z,28.52
2023-09-09T12:03:24.307Z,28.51
2023-09-09T12:07:30.316Z,28.54
2023-09-09T12:11:35.446Z,28.54
2023-09-09T12:15:45.627Z,28.58
2023-09-09T12:19:58.564Z,28.60
2023-09-09T12:24:01.580Z,28.67
2023-09-09T12:28:16.005Z,28.73
2023-09-09T12:32:19.318Z,28.83
2023-09-09T12:36:22.261Z,28.76
2023-09-09T12:40:26.237Z,28.89
2023-09-09T12:44:32.244Z,29.07
2023-09-09T12:48:53.426Z,29.21
2023-09-09T12:52:59.346Z,29.23
2023-09-09T12:57:01.388Z,29.24
2023-09-09T13:01:03.461Z,29.36
2023-09-09T13:05:05.880Z,29.32
2023-09-09T13:09:07.873Z,29.01
2023-09-09T13:13:10.476Z,28.93
2023-09-09T13:17:12.678Z,28.82
2023-09-09T13:21:14.908Z,28.76
2023-09-09T13:25:17.083Z,28.82
2023-09-09T13:29:19.157Z,28.86
2023-09-09T13:33:21.851Z,28.91
2023-09-09T13:37:23.918Z,28.91
2023-09-09T13:41:29.238Z,28.93
2023-09-09T13:45:32.016Z,28.95
2023-09-09T13:49:37.154Z,29.00
2023-09-09T13:53:39.509Z,28.88
2023-09-09T13:57:42.031Z,28.80
2023-09-09T14:01:44.028Z,28.70
2023-09-09T14:05:46.169Z,28.70
2023-09-09T14:09:48.556Z,28.73
2023-09-09T14:13:50.690Z,28.73
2023-09-09T14:17:52.810Z,28.74
2023-09-09T14:21:55.138Z,28.77
2023-09-09T14:25:57.180Z,28.75
2023-09-09T14:29:59.261Z,28.73
2023-09-09T14:34:01.503Z,28.72
2023-09-09T14:38:03.759Z,28.67
2023-09-09T14:42:06.130Z,28.59
2023-09-09T14:46:08.341Z,28.52
2023-09-09T14:50:11.358Z,28.46
2023-09-09T14:54:13.609Z,28.32
2023-09-09T14:58:15.744Z,28.19
2023-09-09T15:02:18.371Z,28.04
2023-09-09T15:06:22.224Z,27.94
2023-09-09T15:10:24.295Z,27.82
2023-09-09T15:14:26.403Z,27.79
2023-09-09T15:18:28.782Z,27.76
2023-09-09T15:22:30.896Z,27.69
2023-09-09T15:26:33.258Z,27.64
2023-09-09T15:30:35.424Z,27.61
2023-09-09T15:34:37.459Z,27.57
2023-09-09T15:38:41.794Z,27.51
2023-09-09T15:42:44.141Z,27.45
2023-09-09T15:46:46.540Z,27.38
2023-09-09T15:50:48.732Z,27.30
2023-09-09T15:54:50.902Z,27.28
2023-09-09T15:58:54.355Z,27.23
2023-09-09T16:02:56.515Z,27.13
2023-09-09T16:06:58.736Z,27.00
2023-09-09T16:11:02.173Z,26.87
2023-09-09T16:15:04.898Z,26.75
2023-09-09T16:19:07.939Z,26.62
2023-09-09T16:23:10.653Z,26.46
2023-09-09T16:27:13.968Z,26.31
2023-09-09T16:31:16.100Z,26.18
2023-09-09T16:35:18.180Z,26.02
2023-09-09T16:39:20.379Z,25.86
2023-09-09T16:43:22.637Z,25.64
2023-09-09T16:47:24.742Z,25.35
2023-09-09T16:51:26.744Z,25.09
2023-09-09T16:55:28.844Z,24.85
2023-09-09T16:59:41.160Z,24.58
2023-09-09T17:03:44.065Z,24.33
2023-09-09T17:07:46.205Z,24.12
2023-09-09T17:11:48.266Z,23.90
2023-09-09T17:15:50.627Z,23.70
2023-09-09T17:19:53.579Z,23.47
2023-09-09T17:23:56.394Z,23.22
2023-09-09T17:27:59.149Z,23.01
2023-09-09T17:32:04.044Z,22.82
2023-09-09T17:36:06.112Z,22.62
2023-09-09T17:40:09.362Z,22.46
2023-09-09T17:44:12.356Z,22.37
2023-09-09T17:48:14.613Z,22.28
2023-09-09T17:52:17.259Z,22.10
2023-09-09T17:56:22.941Z,21.91
2023-09-09T18:00:25.426Z,21.72
2023-09-09T18:04:27.637Z,21.55
2023-09-09T18:08:30.034Z,21.44
2023-09-09T18:12:32.158Z,21.29
2023-09-09T18:16:34.568Z,21.12
2023-09-09T18:20:36.758Z,21.00
2023-09-09T18:24:38.765Z,20.85
2023-09-09T18:28:41.094Z,20.71
2023-09-09T18:32:44.735Z,20.59
2023-09-09T18:36:46.929Z,20.52
2023-09-09T18:40:51.485Z,20.49
2023-09-09T18:44:54.033Z,20.41
2023-09-09T18:48:56.585Z,20.32
2023-09-09T18:52:58.714Z,20.28
2023-09-09T18:57:00.735Z,20.21
2023-09-09T19:01:03.166Z,20.07
2023-09-09T19:05:08.995Z,19.92
2023-09-09T19:09:15.908Z,19.85
2023-09-09T19:13:18.300Z,19.78
2023-09-09T19:17:22.342Z,19.69
2023-09-09T19:21:25.638Z,19.67
2023-09-09T19:25:27.822Z,19.67
2023-09-09T19:29:30.258Z,19.60
2023-09-09T19:33:32.825Z,19.46
2023-09-09T19:37:34.970Z,19.35
2023-09-09T19:41:38.336Z,19.25
2023-09-09T19:45:41.635Z,19.15
2023-09-09T19:49:43.823Z,19.00
2023-09-09T19:53:45.920Z,18.99
2023-09-09T19:57:48.111Z,19.00
2023-09-09T20:01:50.325Z,19.01
2023-09-09T20:05:53.452Z,18.91
2023-09-09T20:10:09.951Z,18.89
2023-09-09T20:14:13.804Z,18.85
2023-09-09T20:18:16.065Z,18.78
2023-09-09T20:22:20.979Z,18.71
2023-09-09T20:26:23.184Z,18.52
2023-09-09T20:30:26.327Z,18.28
2023-09-09T20:34:28.618Z,18.20
2023-09-09T20:38:31.425Z,18.27
2023-09-09T20:42:35.848Z,18.32
2023-09-09T20:46:40.140Z,18.33
2023-09-09T20:50:42.212Z,18.22
2023-09-09T20:54:45.104Z,18.14
2023-09-09T20:58:47.706Z,18.10
2023-09-09T21:02:53.557Z,18.06
2023-09-09T21:06:55.842Z,17.96
2023-09-09T21:10:58.739Z,17.80
2023-09-09T21:15:00.860Z,17.80
2023-09-09T21:19:03.167Z,17.85
2023-09-09T21:23:05.549Z,17.92
2023-09-09T21:27:08.178Z,17.95
2023-09-09T21:31:10.198Z,17.94
2023-09-09T21:35:17.279Z,17.94
2023-09-09T21:39:19.288Z,17.97
2023-09-09T21:43:21.270Z,17.92
2023-09-09T21:47:23.775Z,17.84
2023-09-09T21:51:26.044Z,17.81
2023-09-09T21:55:29.081Z,17.76
2023-09-09T21:59:31.121Z,17.73
2023-09-09T22:03:33.339Z,17.74
2023-09-09T22:07:35.449Z,17.66
2023-09-09T22:11:37.528Z,17.60
2023-09-09T22:15:41.499Z,17.54
2023-09-09T22:19:43.883Z,17.41
2023-09-09T22:23:46.148Z,17.23
2023-09-09T22:27:48.560Z,17.15
2023-09-09T22:31:50.863Z,17.14
2023-09-09T22:35:53.043Z,17.15
2023-09-09T22:39:55.066Z,17.20
2023-09-09T22:43:57.199Z,17.22
2023-09-09T22:47:59.238Z,17.21
2023-09-09T22:52:02.417Z,17.21
2023-09-09T22:56:04.641Z,17.23
2023-09-09T23:00:07.407Z,17.22
2023-09-09T23:04:10.078Z,17.22
2023-09-09T23:08:12.558Z,17.18
2023-09-09T23:12:14.604Z,17.18
2023-09-09T23:16:17.187Z,17.19
2023-09-09T23:20:20.465Z,17.18
2023-09-09T23:24:22.828Z,17.17
2023-09-09T23:28:26.520Z,17.21
2023-09-09T23:32:28.609Z,17.22
2023-09-09T23:36:31.395Z,17.20
2023-09-09T23:40:33.486Z,17.14
2023-09-09T23:44:35.582Z,17.08
2023-09-09T23:48:38.001Z,16.99
2023-09-09T23:52:40.919Z,16.93
2023-09-09T23:56:42.998Z,16.88
